sensor_id;sensor_type;location;lat;lon;timestamp;pressure;altitude;pressure_sealevel;temperature;humidity
74218;BME280;62579;47.288;18.646;2024-01-10T00:00:47;101583.41;;;-4.88;79.24
74218;BME280;62579;47.288;18.646;2024-01-10T00:03:13;101584.53;;;-4.89;79.14
74218;BME280;62579;47.288;18.646;2024-01-10T00:05:38;101584.12;;;-4.91;79.24
74218;BME280;62579;47.288;18.646;2024-01-10T00:08:04;101578.19;;;-4.84;79.11
74218;BME280;62579;47.288;18.646;2024-01-10T00:10:29;101580.06;;;-4.85;78.90
74218;BME280;62579;47.288;18.646;2024-01-10T00:12:55;101575.94;;;-4.82;78.92
74218;BME280;62579;47.288;18.646;2024-01-10T00:15:20;101576.44;;;-4.77;78.80
74218;BME280;62579;47.288;18.646;2024-01-10T00:17:45;101577.53;;;-4.78;78.24
74218;BME280;62579;47.288;18.646;2024-01-10T00:20:11;101575.44;;;-4.88;79.04
74218;BME280;62579;47.288;18.646;2024-01-10T00:22:36;101573.66;;;-4.84;78.32
74218;BME280;62579;47.288;18.646;2024-01-10T00:25:02;101569.25;;;-4.76;78.20
74218;BME280;62579;47.288;18.646;2024-01-10T00:27:27;101579.16;;;-4.73;77.70
74218;BME280;62579;47.288;18.646;2024-01-10T00:29:52;101581.47;;;-4.72;77.62
74218;BME280;62579;47.288;18.646;2024-01-10T00:32:18;101572.87;;;-4.65;77.22
74218;BME280;62579;47.288;18.646;2024-01-10T00:34:43;101576.50;;;-4.73;78.41
74218;BME280;62579;47.288;18.646;2024-01-10T00:37:08;101576.34;;;-4.80;78.94
74218;BME280;62579;47.288;18.646;2024-01-10T00:39:34;101575.09;;;-4.87;79.15
74218;BME280;62579;47.288;18.646;2024-01-10T00:41:59;101574.62;;;-4.92;79.12
74218;BME280;62579;47.288;18.646;2024-01-10T00:44:24;101572.59;;;-4.99;79.49
74218;BME280;62579;47.288;18.646;2024-01-10T00:46:50;101578.66;;;-4.98;79.23
74218;BME280;62579;47.288;18.646;2024-01-10T00:49:15;101579.69;;;-5.03;79.88
74218;BME280;62579;47.288;18.646;2024-01-10T00:51:41;101577.69;;;-5.09;81.07
74218;BME280;62579;47.288;18.646;2024-01-10T00:54:06;101578.59;;;-5.02;80.84
74218;BME280;62579;47.288;18.646;2024-01-10T00:56:31;101572.16;;;-5.01;80.59
74218;BME280;62579;47.288;18.646;2024-01-10T00:58:57;101574.06;;;-5.01;81.38
74218;BME280;62579;47.288;18.646;2024-01-10T01:01:23;101579.37;;;-5.01;80.86
74218;BME280;62579;47.288;18.646;2024-01-10T01:03:48;101571.25;;;-5.08;81.02
74218;BME280;62579;47.288;18.646;2024-01-10T01:06:14;101579.63;;;-5.06;81.02
74218;BME280;62579;47.288;18.646;2024-01-10T01:08:39;101578.16;;;-5.04;80.92
74218;BME280;62579;47.288;18.646;2024-01-10T01:11:05;101582.84;;;-4.97;80.35
74218;BME280;62579;47.288;18.646;2024-01-10T01:13:31;101577.91;;;-4.99;81.69
74218;BME280;62579;47.288;18.646;2024-01-10T01:15:56;101582.09;;;-4.98;81.22
74218;BME280;62579;47.288;18.646;2024-01-10T01:18:21;101577.91;;;-4.99;81.29
74218;BME280;62579;47.288;18.646;2024-01-10T01:20:46;101577.03;;;-5.03;81.72
74218;BME280;62579;47.288;18.646;2024-01-10T01:23:14;101581.53;;;-5.07;81.70
74218;BME280;62579;47.288;18.646;2024-01-10T01:25:39;101587.53;;;-5.10;81.83
74218;BME280;62579;47.288;18.646;2024-01-10T01:28:05;101575.50;;;-5.23;82.19
74218;BME280;62579;47.288;18.646;2024-01-10T01:30:30;101578.16;;;-5.23;81.79
74218;BME280;62579;47.288;18.646;2024-01-10T01:32:56;101578.41;;;-5.28;81.06
74218;BME280;62579;47.288;18.646;2024-01-10T01:35:21;101576.31;;;-5.38;81.55
74218;BME280;62579;47.288;18.646;2024-01-10T01:37:48;101579.91;;;-5.46;82.03
74218;BME280;62579;47.288;18.646;2024-01-10T01:40:13;101580.78;;;-5.58;82.68
74218;BME280;62579;47.288;18.646;2024-01-10T01:42:38;101576.16;;;-5.61;82.82
74218;BME280;62579;47.288;18.646;2024-01-10T01:45:04;101573.94;;;-5.59;82.69
74218;BME280;62579;47.288;18.646;2024-01-10T01:47:30;101570.44;;;-5.63;82.83
74218;BME280;62579;47.288;18.646;2024-01-10T01:49:56;101579.59;;;-5.60;82.45
74218;BME280;62579;47.288;18.646;2024-01-10T01:52:21;101571.22;;;-5.62;83.14
74218;BME280;62579;47.288;18.646;2024-01-10T01:54:47;101565.13;;;-5.63;83.04
74218;BME280;62579;47.288;18.646;2024-01-10T01:57:13;101573.16;;;-5.59;83.13
74218;BME280;62579;47.288;18.646;2024-01-10T01:59:38;101570.25;;;-5.54;82.99
74218;BME280;62579;47.288;18.646;2024-01-10T02:02:05;101576.41;;;-5.50;82.76
74218;BME280;62579;47.288;18.646;2024-01-10T02:04:31;101566.38;;;-5.41;81.88
74218;BME280;62579;47.288;18.646;2024-01-10T02:06:56;101565.19;;;-5.43;81.94
74218;BME280;62579;47.288;18.646;2024-01-10T02:09:22;101569.63;;;-5.48;81.82
74218;BME280;62579;47.288;18.646;2024-01-10T02:11:47;101572.91;;;-5.54;81.97
74218;BME280;62579;47.288;18.646;2024-01-10T02:14:13;101554.00;;;-5.53;82.02
74218;BME280;62579;47.288;18.646;2024-01-10T02:16:40;101557.00;;;-5.54;82.72
74218;BME280;62579;47.288;18.646;2024-01-10T02:19:25;101557.34;;;-5.56;84.08
74218;BME280;62579;47.288;18.646;2024-01-10T02:21:52;101565.09;;;-5.47;83.32
74218;BME280;62579;47.288;18.646;2024-01-10T02:24:18;101569.63;;;-5.48;82.75
74218;BME280;62579;47.288;18.646;2024-01-10T02:26:43;101559.37;;;-5.49;83.39
74218;BME280;62579;47.288;18.646;2024-01-10T02:29:08;101559.03;;;-5.48;82.75
74218;BME280;62579;47.288;18.646;2024-01-10T02:31:34;101562.09;;;-5.46;82.15
74218;BME280;62579;47.288;18.646;2024-01-10T02:33:59;101558.25;;;-5.48;82.04
74218;BME280;62579;47.288;18.646;2024-01-10T02:36:24;101557.97;;;-5.43;81.80
74218;BME280;62579;47.288;18.646;2024-01-10T02:38:51;101558.19;;;-5.52;82.07
74218;BME280;62579;47.288;18.646;2024-01-10T02:41:16;101555.97;;;-5.50;82.17
74218;BME280;62579;47.288;18.646;2024-01-10T02:43:41;101556.56;;;-5.56;82.89
74218;BME280;62579;47.288;18.646;2024-01-10T02:46:06;101550.84;;;-5.58;82.83
74218;BME280;62579;47.288;18.646;2024-01-10T02:48:32;101550.50;;;-5.57;82.76
74218;BME280;62579;47.288;18.646;2024-01-10T02:50:57;101555.31;;;-5.62;83.00
74218;BME280;62579;47.288;18.646;2024-01-10T02:53:23;101557.50;;;-5.64;83.00
74218;BME280;62579;47.288;18.646;2024-01-10T02:55:48;101560.84;;;-5.67;83.62
74218;BME280;62579;47.288;18.646;2024-01-10T02:58:14;101550.69;;;-5.65;83.17
74218;BME280;62579;47.288;18.646;2024-01-10T03:00:40;101566.66;;;-5.62;83.06
74218;BME280;62579;47.288;18.646;2024-01-10T03:03:05;101561.44;;;-5.58;82.77
74218;BME280;62579;47.288;18.646;2024-01-10T03:05:30;101563.31;;;-5.59;83.06
74218;BME280;62579;47.288;18.646;2024-01-10T03:07:56;101561.59;;;-5.51;82.57
74218;BME280;62579;47.288;18.646;2024-01-10T03:10:21;101560.41;;;-5.54;82.29
74218;BME280;62579;47.288;18.646;2024-01-10T03:12:47;101559.91;;;-5.59;82.39
74218;BME280;62579;47.288;18.646;2024-01-10T03:15:12;101559.91;;;-5.59;82.97
74218;BME280;62579;47.288;18.646;2024-01-10T03:17:37;101554.53;;;-5.63;83.62
74218;BME280;62579;47.288;18.646;2024-01-10T03:20:03;101558.69;;;-5.62;82.71
74218;BME280;62579;47.288;18.646;2024-01-10T03:22:30;101562.75;;;-5.68;82.33
74218;BME280;62579;47.288;18.646;2024-01-10T03:24:55;101561.06;;;-5.76;81.83
74218;BME280;62579;47.288;18.646;2024-01-10T03:27:21;101559.75;;;-5.82;82.05
74218;BME280;62579;47.288;18.646;2024-01-10T03:29:46;101563.81;;;-5.88;82.70
74218;BME280;62579;47.288;18.646;2024-01-10T03:32:11;101566.88;;;-6.01;83.54
74218;BME280;62579;47.288;18.646;2024-01-10T03:34:37;101563.56;;;-5.98;83.22
74218;BME280;62579;47.288;18.646;2024-01-10T03:37:02;101557.94;;;-5.97;83.03
74218;BME280;62579;47.288;18.646;2024-01-10T03:39:27;101570.91;;;-6.07;83.81
74218;BME280;62579;47.288;18.646;2024-01-10T03:41:53;101572.69;;;-6.12;84.22
74218;BME280;62579;47.288;18.646;2024-01-10T03:44:18;101573.06;;;-6.13;84.29
74218;BME280;62579;47.288;18.646;2024-01-10T03:46:43;101565.75;;;-6.32;84.57
74218;BME280;62579;47.288;18.646;2024-01-10T03:49:09;101557.22;;;-6.41;85.31
74218;BME280;62579;47.288;18.646;2024-01-10T03:51:35;101562.66;;;-6.49;84.91
74218;BME280;62579;47.288;18.646;2024-01-10T03:54:00;101565.81;;;-6.44;84.82
74218;BME280;62579;47.288;18.646;2024-01-10T03:56:25;101566.44;;;-6.35;84.15
74218;BME280;62579;47.288;18.646;2024-01-10T03:58:51;101567.72;;;-6.29;83.92
74218;BME280;62579;47.288;18.646;2024-01-10T04:01:16;101570.38;;;-6.29;83.71
74218;BME280;62579;47.288;18.646;2024-01-10T04:03:42;101574.12;;;-6.30;83.74
74218;BME280;62579;47.288;18.646;2024-01-10T04:06:09;101573.47;;;-6.27;83.46
74218;BME280;62579;47.288;18.646;2024-01-10T04:08:34;101578.31;;;-6.29;82.71
74218;BME280;62579;47.288;18.646;2024-01-10T04:11:00;101570.38;;;-6.29;83.08
74218;BME280;62579;47.288;18.646;2024-01-10T04:13:28;101575.41;;;-6.24;83.40
74218;BME280;62579;47.288;18.646;2024-01-10T04:15:53;101577.84;;;-6.19;84.25
74218;BME280;62579;47.288;18.646;2024-01-10T04:18:19;101575.19;;;-6.19;84.14
74218;BME280;62579;47.288;18.646;2024-01-10T04:20:44;101571.50;;;-6.14;83.62
74218;BME280;62579;47.288;18.646;2024-01-10T04:23:09;101577.31;;;-6.08;83.22
74218;BME280;62579;47.288;18.646;2024-01-10T04:25:35;101567.50;;;-6.08;83.32
74218;BME280;62579;47.288;18.646;2024-01-10T04:28:00;101571.81;;;-6.16;83.88
74218;BME280;62579;47.288;18.646;2024-01-10T04:30:26;101569.97;;;-6.15;84.13
74218;BME280;62579;47.288;18.646;2024-01-10T04:32:51;101576.44;;;-6.13;84.98
74218;BME280;62579;47.288;18.646;2024-01-10T04:35:17;101569.53;;;-6.17;84.67
74218;BME280;62579;47.288;18.646;2024-01-10T04:37:42;101571.16;;;-6.13;83.31
74218;BME280;62579;47.288;18.646;2024-01-10T04:40:08;101574.72;;;-6.21;83.35
74218;BME280;62579;47.288;18.646;2024-01-10T04:42:34;101572.09;;;-6.21;83.07
74218;BME280;62579;47.288;18.646;2024-01-10T04:44:59;101573.47;;;-6.27;83.36
74218;BME280;62579;47.288;18.646;2024-01-10T04:47:24;101571.38;;;-6.33;83.53
74218;BME280;62579;47.288;18.646;2024-01-10T04:49:50;101571.38;;;-6.33;83.52
74218;BME280;62579;47.288;18.646;2024-01-10T04:52:15;101568.50;;;-6.28;83.06
74218;BME280;62579;47.288;18.646;2024-01-10T04:54:40;101574.12;;;-6.30;83.68
74218;BME280;62579;47.288;18.646;2024-01-10T04:57:06;101577.62;;;-6.26;84.77
74218;BME280;62579;47.288;18.646;2024-01-10T04:59:32;101576.63;;;-6.21;84.21
74218;BME280;62579;47.288;18.646;2024-01-10T05:01:58;101577.62;;;-6.26;83.51
74218;BME280;62579;47.288;18.646;2024-01-10T05:04:23;101578.06;;;-6.24;83.25
74218;BME280;62579;47.288;18.646;2024-01-10T05:06:49;101581.75;;;-6.28;83.48
74218;BME280;62579;47.288;18.646;2024-01-10T05:09:14;101581.88;;;-6.37;83.70
74218;BME280;62579;47.288;18.646;2024-01-10T05:11:40;101573.09;;;-6.41;83.75
74218;BME280;62579;47.288;18.646;2024-01-10T05:14:05;101570.75;;;-6.42;83.22
74218;BME280;62579;47.288;18.646;2024-01-10T05:16:30;101579.41;;;-6.45;83.63
74218;BME280;62579;47.288;18.646;2024-01-10T05:18:56;101578.72;;;-6.42;83.33
74218;BME280;62579;47.288;18.646;2024-01-10T05:21:22;101580.16;;;-6.45;83.11
74218;BME280;62579;47.288;18.646;2024-01-10T05:23:47;101585.91;;;-6.43;83.50
74218;BME280;62579;47.288;18.646;2024-01-10T05:26:14;101584.25;;;-6.47;83.51
74218;BME280;62579;47.288;18.646;2024-01-10T05:28:39;101582.37;;;-6.47;83.59
74218;BME280;62579;47.288;18.646;2024-01-10T05:31:05;101583.84;;;-6.49;83.78
74218;BME280;62579;47.288;18.646;2024-01-10T05:33:30;101588.41;;;-6.62;84.60
74218;BME280;62579;47.288;18.646;2024-01-10T05:35:56;101593.37;;;-6.60;84.91
74218;BME280;62579;47.288;18.646;2024-01-10T05:38:21;101594.00;;;-6.51;84.03
74218;BME280;62579;47.288;18.646;2024-01-10T05:40:46;101596.37;;;-6.62;84.12
74218;BME280;62579;47.288;18.646;2024-01-10T05:43:12;101592.69;;;-6.57;84.57
74218;BME280;62579;47.288;18.646;2024-01-10T05:45:38;101612.44;;;-6.55;84.73
74218;BME280;62579;47.288;18.646;2024-01-10T05:48:04;101600.41;;;-6.52;84.39
74218;BME280;62579;47.288;18.646;2024-01-10T05:50:29;101609.13;;;-6.52;84.57
74218;BME280;62579;47.288;18.646;2024-01-10T05:52:55;101605.44;;;-6.47;84.39
74218;BME280;62579;47.288;18.646;2024-01-10T05:55:21;101602.56;;;-6.42;84.27
74218;BME280;62579;47.288;18.646;2024-01-10T05:57:46;101604.09;;;-6.41;83.82
74218;BME280;62579;47.288;18.646;2024-01-10T06:00:13;101605.72;;;-6.37;83.54
74218;BME280;62579;47.288;18.646;2024-01-10T06:02:41;101604.53;;;-6.39;83.52
74218;BME280;62579;47.288;18.646;2024-01-10T06:05:08;101611.56;;;-6.31;83.27
74218;BME280;62579;47.288;18.646;2024-01-10T06:07:34;101610.28;;;-6.37;83.14
74218;BME280;62579;47.288;18.646;2024-01-10T06:10:00;101612.03;;;-6.41;84.62
74218;BME280;62579;47.288;18.646;2024-01-10T06:12:26;101611.88;;;-6.48;85.66
74218;BME280;62579;47.288;18.646;2024-01-10T06:14:51;101605.78;;;-6.49;84.87
74218;BME280;62579;47.288;18.646;2024-01-10T06:17:17;101616.13;;;-6.44;84.12
74218;BME280;62579;47.288;18.646;2024-01-10T06:19:44;101619.81;;;-6.48;83.83
74218;BME280;62579;47.288;18.646;2024-01-10T06:22:09;101626.75;;;-6.44;83.90
74218;BME280;62579;47.288;18.646;2024-01-10T06:24:36;101616.50;;;-6.45;85.24
74218;BME280;62579;47.288;18.646;2024-01-10T06:27:03;101623.13;;;-6.51;85.13
74218;BME280;62579;47.288;18.646;2024-01-10T06:29:29;101626.44;;;-6.54;84.38
74218;BME280;62579;47.288;18.646;2024-01-10T06:31:54;101622.16;;;-6.59;84.24
74218;BME280;62579;47.288;18.646;2024-01-10T06:34:21;101627.47;;;-6.59;84.13
74218;BME280;62579;47.288;18.646;2024-01-10T06:36:47;101634.50;;;-6.51;83.53
74218;BME280;62579;47.288;18.646;2024-01-10T06:39:13;101634.56;;;-6.75;83.98
74218;BME280;62579;47.288;18.646;2024-01-10T06:41:39;101633.59;;;-6.83;84.67
74218;BME280;62579;47.288;18.646;2024-01-10T06:44:04;101641.06;;;-6.73;84.15
74218;BME280;62579;47.288;18.646;2024-01-10T06:46:31;101640.72;;;-6.71;83.78
74218;BME280;62579;47.288;18.646;2024-01-10T06:48:57;101638.31;;;-6.76;83.49
74218;BME280;62579;47.288;18.646;2024-01-10T06:51:22;101637.47;;;-6.92;84.16
74218;BME280;62579;47.288;18.646;2024-01-10T06:53:48;101627.91;;;-6.97;84.43
74218;BME280;62579;47.288;18.646;2024-01-10T06:56:13;101635.19;;;-6.94;84.13
74218;BME280;62579;47.288;18.646;2024-01-10T06:58:39;101639.12;;;-6.88;83.64
74218;BME280;62579;47.288;18.646;2024-01-10T07:01:05;101635.47;;;-6.83;83.31
74218;BME280;62579;47.288;18.646;2024-01-10T07:03:31;101637.00;;;-6.70;83.85
74218;BME280;62579;47.288;18.646;2024-01-10T07:05:57;101634.88;;;-6.64;83.65
74218;BME280;62579;47.288;18.646;2024-01-10T07:08:25;101633.44;;;-6.62;82.61
74218;BME280;62579;47.288;18.646;2024-01-10T07:10:50;101636.63;;;-6.56;82.51
74218;BME280;62579;47.288;18.646;2024-01-10T07:13:16;101637.47;;;-6.52;82.87
74218;BME280;62579;47.288;18.646;2024-01-10T07:15:41;101636.97;;;-6.42;82.23
74218;BME280;62579;47.288;18.646;2024-01-10T07:18:06;101640.41;;;-6.42;81.72
74218;BME280;62579;47.288;18.646;2024-01-10T07:20:32;101641.81;;;-6.32;81.78
74218;BME280;62579;47.288;18.646;2024-01-10T07:22:58;101640.63;;;-6.35;82.27
74218;BME280;62579;47.288;18.646;2024-01-10T07:25:24;101643.25;;;-6.35;82.83
74218;BME280;62579;47.288;18.646;2024-01-10T07:27:51;101640.16;;;-6.37;83.71
74218;BME280;62579;47.288;18.646;2024-01-10T07:30:16;101643.25;;;-6.35;83.76
74218;BME280;62579;47.288;18.646;2024-01-10T07:32:43;101634.72;;;-6.28;83.55
74218;BME280;62579;47.288;18.646;2024-01-10T07:35:09;101632.84;;;-6.28;84.22
74218;BME280;62579;47.288;18.646;2024-01-10T07:37:39;101628.19;;;-6.19;83.95
74218;BME280;62579;47.288;18.646;2024-01-10T07:40:06;101626.37;;;-6.15;84.54
74218;BME280;62579;47.288;18.646;2024-01-10T07:42:35;101631.16;;;-6.04;84.67
74218;BME280;62579;47.288;18.646;2024-01-10T07:45:01;101638.44;;;-6.01;82.59
74218;BME280;62579;47.288;18.646;2024-01-10T07:47:33;101638.81;;;-5.87;82.04
74218;BME280;62579;47.288;18.646;2024-01-10T07:50:06;101635.72;;;-5.74;80.96
74218;BME280;62579;47.288;18.646;2024-01-10T07:52:32;101637.06;;;-5.64;81.41
74218;BME280;62579;47.288;18.646;2024-01-10T07:54:58;101643.41;;;-5.53;81.69
74218;BME280;62579;47.288;18.646;2024-01-10T07:57:23;101641.09;;;-5.39;81.41
74218;BME280;62579;47.288;18.646;2024-01-10T07:59:48;101645.09;;;-5.29;82.11
74218;BME280;62579;47.288;18.646;2024-01-10T08:02:14;101636.94;;;-5.21;83.06
74218;BME280;62579;47.288;18.646;2024-01-10T08:04:39;101643.75;;;-5.04;83.85
74218;BME280;62579;47.288;18.646;2024-01-10T08:07:04;101642.88;;;-4.93;84.40
74218;BME280;62579;47.288;18.646;2024-01-10T08:09:30;101645.47;;;-4.77;85.56
74218;BME280;62579;47.288;18.646;2024-01-10T08:11:55;101647.78;;;-4.75;85.89
74218;BME280;62579;47.288;18.646;2024-01-10T08:14:21;101646.19;;;-4.61;85.72
74218;BME280;62579;47.288;18.646;2024-01-10T08:16:46;101649.47;;;-4.48;84.91
74218;BME280;62579;47.288;18.646;2024-01-10T08:19:11;101651.56;;;-4.38;83.82
74218;BME280;62579;47.288;18.646;2024-01-10T08:21:37;101646.53;;;-4.24;81.29
74218;BME280;62579;47.288;18.646;2024-01-10T08:24:02;101647.06;;;-4.15;81.72
74218;BME280;62579;47.288;18.646;2024-01-10T08:26:28;101649.53;;;-4.06;80.17
74218;BME280;62579;47.288;18.646;2024-01-10T08:28:53;101643.22;;;-3.98;79.19
74218;BME280;62579;47.288;18.646;2024-01-10T08:31:19;101647.16;;;-3.89;76.85
74218;BME280;62579;47.288;18.646;2024-01-10T08:33:44;101652.53;;;-3.40;74.39
74218;BME280;62579;47.288;18.646;2024-01-10T08:36:10;101643.37;;;-3.42;78.75
74218;BME280;62579;47.288;18.646;2024-01-10T08:38:36;101647.53;;;-3.41;76.87
74218;BME280;62579;47.288;18.646;2024-01-10T08:41:02;101648.84;;;-3.06;72.24
74218;BME280;62579;47.288;18.646;2024-01-10T08:43:28;101648.75;;;-3.13;71.99
74218;BME280;62579;47.288;18.646;2024-01-10T08:45:54;101646.03;;;-3.16;71.66
74218;BME280;62579;47.288;18.646;2024-01-10T08:48:19;101651.81;;;-3.11;71.15
74218;BME280;62579;47.288;18.646;2024-01-10T08:50:44;101651.56;;;-3.02;71.97
74218;BME280;62579;47.288;18.646;2024-01-10T08:53:10;101651.25;;;-2.97;71.79
74218;BME280;62579;47.288;18.646;2024-01-10T08:55:35;101659.78;;;-2.84;70.77
74218;BME280;62579;47.288;18.646;2024-01-10T08:58:03;101658.28;;;-2.82;69.32
74218;BME280;62579;47.288;18.646;2024-01-10T09:00:28;101656.06;;;-2.76;68.98
74218;BME280;62579;47.288;18.646;2024-01-10T09:02:54;101658.84;;;-2.69;68.99
74218;BME280;62579;47.288;18.646;2024-01-10T09:05:20;101659.69;;;-2.62;68.25
74218;BME280;62579;47.288;18.646;2024-01-10T09:07:47;101657.13;;;-2.55;68.02
74218;BME280;62579;47.288;18.646;2024-01-10T09:10:12;101657.50;;;-2.53;66.76
74218;BME280;62579;47.288;18.646;2024-01-10T09:12:38;101659.91;;;-2.44;67.49
74218;BME280;62579;47.288;18.646;2024-01-10T09:15:03;101649.78;;;-2.31;68.16
74218;BME280;62579;47.288;18.646;2024-01-10T09:17:29;101647.13;;;-2.28;67.54
74218;BME280;62579;47.288;18.646;2024-01-10T09:19:54;101641.06;;;-2.25;66.19
74218;BME280;62579;47.288;18.646;2024-01-10T09:22:19;101649.59;;;-2.12;66.79
74218;BME280;62579;47.288;18.646;2024-01-10T09:24:45;101653.84;;;-2.08;66.95
74218;BME280;62579;47.288;18.646;2024-01-10T09:27:11;101646.63;;;-2.07;65.50
74218;BME280;62579;47.288;18.646;2024-01-10T09:29:36;101646.72;;;-1.97;66.48
74218;BME280;62579;47.288;18.646;2024-01-10T09:32:02;101640.22;;;-1.99;66.10
74218;BME280;62579;47.288;18.646;2024-01-10T09:34:27;101632.94;;;-2.02;66.90
74218;BME280;62579;47.288;18.646;2024-01-10T09:36:53;101642.59;;;-1.87;66.49
74218;BME280;62579;47.288;18.646;2024-01-10T09:39:19;101635.81;;;-1.81;66.92
74218;BME280;62579;47.288;18.646;2024-01-10T09:41:49;101639.59;;;-1.82;67.98
74218;BME280;62579;47.288;18.646;2024-01-10T09:44:17;101642.59;;;-1.87;67.91
74218;BME280;62579;47.288;18.646;2024-01-10T09:46:53;101634.63;;;-1.84;68.34
74218;BME280;62579;47.288;18.646;2024-01-10T09:49:19;101619.13;;;-1.67;67.98
74218;BME280;62579;47.288;18.646;2024-01-10T09:51:49;101627.84;;;-1.74;68.06
74218;BME280;62579;47.288;18.646;2024-01-10T09:54:15;101620.72;;;-1.59;68.72
74218;BME280;62579;47.288;18.646;2024-01-10T09:56:41;101618.50;;;-1.50;68.29
74218;BME280;62579;47.288;18.646;2024-01-10T09:59:08;101621.62;;;-1.41;66.83
74218;BME280;62579;47.288;18.646;2024-01-10T10:01:37;101614.81;;;-1.32;66.05
74218;BME280;62579;47.288;18.646;2024-01-10T10:04:04;101610.66;;;-1.29;67.18
74218;BME280;62579;47.288;18.646;2024-01-10T10:06:30;101605.97;;;-1.39;67.45
74218;BME280;62579;47.288;18.646;2024-01-10T10:08:55;101606.41;;;-1.34;67.48
74218;BME280;62579;47.288;18.646;2024-01-10T10:11:21;101600.78;;;-1.14;67.23
74218;BME280;62579;47.288;18.646;2024-01-10T10:13:46;101610.72;;;-1.15;67.33
74218;BME280;62579;47.288;18.646;2024-01-10T10:16:13;101608.53;;;-0.95;66.77
74218;BME280;62579;47.288;18.646;2024-01-10T10:18:39;101606.16;;;-1.11;67.42
74218;BME280;62579;47.288;18.646;2024-01-10T10:21:14;101600.84;;;-1.04;66.92
74218;BME280;62579;47.288;18.646;2024-01-10T10:23:41;101602.84;;;-0.87;66.55
74218;BME280;62579;47.288;18.646;2024-01-10T10:26:11;101600.09;;;-1.01;67.54
74218;BME280;62579;47.288;18.646;2024-01-10T10:28:40;101601.34;;;-0.84;66.51
74218;BME280;62579;47.288;18.646;2024-01-10T10:31:06;101592.97;;;-0.72;67.08
74218;BME280;62579;47.288;18.646;2024-01-10T10:33:32;101589.91;;;-0.81;67.10
74218;BME280;62579;47.288;18.646;2024-01-10T10:35:58;101596.34;;;-0.89;67.00
74218;BME280;62579;47.288;18.646;2024-01-10T10:38:24;101592.53;;;-0.88;64.93
74218;BME280;62579;47.288;18.646;2024-01-10T10:40:50;101594.50;;;-0.78;64.55
74218;BME280;62579;47.288;18.646;2024-01-10T10:43:18;101593.78;;;-0.65;64.49
74218;BME280;62579;47.288;18.646;2024-01-10T10:45:48;101589.22;;;-0.57;64.79
74218;BME280;62579;47.288;18.646;2024-01-10T10:48:16;101590.00;;;-0.42;64.80
74218;BME280;62579;47.288;18.646;2024-01-10T10:50:50;101585.00;;;-0.62;63.83
74218;BME280;62579;47.288;18.646;2024-01-10T10:53:17;101584.25;;;-0.62;62.83
74218;BME280;62579;47.288;18.646;2024-01-10T10:55:44;101574.38;;;-0.40;62.70
74218;BME280;62579;47.288;18.646;2024-01-10T10:58:12;101572.84;;;-0.38;63.82
74218;BME280;62579;47.288;18.646;2024-01-10T11:00:40;101570.91;;;-0.37;63.02
74218;BME280;62579;47.288;18.646;2024-01-10T11:03:09;101571.34;;;-0.25;64.12
74218;BME280;62579;47.288;18.646;2024-01-10T11:05:38;101560.62;;;-0.25;63.11
74218;BME280;62579;47.288;18.646;2024-01-10T11:08:07;101559.88;;;-0.11;63.24
74218;BME280;62579;47.288;18.646;2024-01-10T11:10:39;101546.91;;;-0.06;63.90
74218;BME280;62579;47.288;18.646;2024-01-10T11:24:38;101531.97;;;0.11;62.09
74218;BME280;62579;47.288;18.646;2024-01-10T11:27:13;101540.41;;;0.13;63.35
74218;BME280;62579;47.288;18.646;2024-01-10T11:29:39;101523.16;;;0.28;63.42
74218;BME280;62579;47.288;18.646;2024-01-10T11:32:25;101521.25;;;0.18;63.12
74218;BME280;62579;47.288;18.646;2024-01-10T11:35:00;101521.25;;;0.00;62.19
74218;BME280;62579;47.288;18.646;2024-01-10T11:37:38;101521.28;;;0.04;62.88
74218;BME280;62579;47.288;18.646;2024-01-10T11:40:08;101516.25;;;0.27;61.27
74218;BME280;62579;47.288;18.646;2024-01-10T11:42:44;101514.34;;;0.28;62.78
74218;BME280;62579;47.288;18.646;2024-01-10T11:45:35;101514.34;;;0.38;62.33
74218;BME280;62579;47.288;18.646;2024-01-10T11:48:03;101509.34;;;0.51;62.72
74218;BME280;62579;47.288;18.646;2024-01-10T11:50:32;101510.50;;;0.53;62.47
74218;BME280;62579;47.288;18.646;2024-01-10T11:53:00;101503.59;;;0.56;63.06
74218;BME280;62579;47.288;18.646;2024-01-10T11:55:55;101503.56;;;0.63;63.41
74218;BME280;62579;47.288;18.646;2024-01-10T11:58:23;101501.22;;;0.79;63.01
74218;BME280;62579;47.288;18.646;2024-01-10T12:00:51;101500.03;;;0.84;61.47
74218;BME280;62579;47.288;18.646;2024-01-10T12:03:26;101497.34;;;0.87;61.65
74218;BME280;62579;47.288;18.646;2024-01-10T12:05:52;101498.47;;;0.97;61.77
74218;BME280;62579;47.288;18.646;2024-01-10T12:08:18;101499.91;;;1.15;61.39
74218;BME280;62579;47.288;18.646;2024-01-10T12:10:56;101502.88;;;1.32;60.07
74218;BME280;62579;47.288;18.646;2024-01-10T12:13:22;101494.84;;;1.28;60.09
74218;BME280;62579;47.288;18.646;2024-01-10T12:15:48;101487.16;;;1.30;60.06
74218;BME280;62579;47.288;18.646;2024-01-10T12:18:13;101487.09;;;1.44;59.22
74218;BME280;62579;47.288;18.646;2024-01-10T12:20:55;101492.03;;;1.49;59.17
74218;BME280;62579;47.288;18.646;2024-01-10T12:23:30;101486.72;;;1.39;60.54
74218;BME280;62579;47.288;18.646;2024-01-10T12:26:10;101480.31;;;1.26;61.29
74218;BME280;62579;47.288;18.646;2024-01-10T12:28:39;101483.34;;;1.28;61.76
74218;BME280;62579;47.288;18.646;2024-01-10T12:31:14;101484.09;;;1.32;61.70
74218;BME280;62579;47.288;18.646;2024-01-10T12:33:41;101479.84;;;1.38;62.00
74218;BME280;62579;47.288;18.646;2024-01-10T12:36:10;101471.06;;;1.34;61.94
74218;BME280;62579;47.288;18.646;2024-01-10T12:38:38;101468.38;;;1.34;61.31
74218;BME280;62579;47.288;18.646;2024-01-10T12:41:04;101474.03;;;1.43;61.91
74218;BME280;62579;47.288;18.646;2024-01-10T12:43:30;101465.19;;;1.53;61.94
74218;BME280;62579;47.288;18.646;2024-01-10T12:46:09;101471.37;;;1.43;61.01
74218;BME280;62579;47.288;18.646;2024-01-10T12:48:41;101462.19;;;1.44;61.82